createdAt,value
2018-08-24T06:44:43.786Z,20
2018-08-24T06:45:04.051Z,20
2018-08-24T06:45:24.217Z,20
2018-08-24T06:45:44.371Z,20
2018-08-24T06:46:05.246Z,20
2018-08-24T06:46:25.410Z,20
2018-08-24T06:46:45.571Z,20
2018-08-24T06:47:05.772Z,20
2018-08-24T06:47:26.177Z,20
2018-08-24T06:47:46.381Z,20
2018-08-24T06:48:06.502Z,20
2018-08-24T06:48:26.779Z,20
2018-08-24T06:48:46.979Z,20
2018-08-24T06:49:07.108Z,20
2018-08-24T06:49:28.127Z,20
2018-08-24T06:49:48.319Z,20
2018-08-24T06:50:08.605Z,20
2018-08-24T06:50:29.704Z,20
2018-08-24T06:50:52.748Z,20
2018-08-24T06:51:12.922Z,20
2018-08-24T06:51:33.081Z,20
2018-08-24T06:51:53.285Z,20
2018-08-24T06:52:13.470Z,20
2018-08-24T06:52:33.655Z,20
2018-08-24T06:52:53.841Z,20
2018-08-24T06:53:14.423Z,20
2018-08-24T06:53:34.768Z,20
2018-08-24T06:53:55.037Z,20
2018-08-24T06:54:15.082Z,20
2018-08-24T06:54:35.296Z,20
2018-08-24T06:54:55.505Z,25
2018-08-24T06:55:15.705Z,25
2018-08-24T06:55:35.892Z,25
2018-08-24T06:55:56.080Z,25
2018-08-24T06:56:16.289Z,25
2018-08-24T06:56:36.481Z,25
2018-08-24T06:56:56.675Z,25
2018-08-24T06:57:16.930Z,25
2018-08-24T06:57:37.132Z,25
2018-08-24T06:57:57.319Z,25
2018-08-24T06:58:17.495Z,25
2018-08-24T06:58:37.701Z,25
2018-08-24T06:58:57.894Z,25
2018-08-24T06:59:18.128Z,25
2018-08-24T06:59:38.407Z,25
2018-08-24T06:59:58.607Z,25
2018-08-24T07:00:18.812Z,25
2018-08-24T07:00:39.637Z,25
2018-08-24T07:00:59.863Z,25
2018-08-24T07:01:20.048Z,25
2018-08-24T07:01:40.220Z,25
2018-08-24T07:02:00.430Z,25
2018-08-24T07:02:20.685Z,25
2018-08-24T07:02:40.857Z,25
2018-08-24T07:03:01.006Z,25
2018-08-24T07:03:21.261Z,25
2018-08-24T07:03:41.416Z,25
2018-08-24T07:04:01.614Z,25
2018-08-24T07:04:21.838Z,25
2018-08-24T07:04:42.176Z,25
2018-08-24T07:05:02.379Z,25
2018-08-24T07:05:22.635Z,25
2018-08-24T07:05:42.936Z,25
2018-08-24T07:06:03.053Z,30
2018-08-24T07:06:23.251Z,30
2018-08-24T07:06:43.422Z,30
2018-08-24T07:07:03.558Z,30
2018-08-24T07:07:23.720Z,30
2018-08-24T07:07:43.877Z,30
2018-08-24T07:08:04.052Z,30
2018-08-24T07:08:24.245Z,30
2018-08-24T07:08:44.400Z,30
2018-08-24T07:09:04.653Z,30
2018-08-24T07:09:24.874Z,30
2018-08-24T07:09:45.051Z,30
2018-08-24T07:10:05.309Z,30
2018-08-24T07:10:25.435Z,30
2018-08-24T07:10:45.647Z,30
2018-08-24T07:11:05.914Z,30
2018-08-24T07:11:26.227Z,30
2018-08-24T07:11:46.345Z,30
2018-08-24T07:12:06.536Z,30
2018-08-24T07:12:26.692Z,30
2018-08-24T07:12:46.933Z,30
2018-08-24T07:13:07.245Z,30
2018-08-24T07:13:27.329Z,35
2018-08-24T07:13:47.572Z,35
2018-08-24T07:14:07.754Z,35
2018-08-24T07:14:27.947Z,35
2018-08-24T07:14:48.231Z,35
2018-08-24T07:15:08.470Z,35
2018-08-24T07:15:28.713Z,35
2018-08-24T07:15:48.950Z,35
2018-08-24T07:16:09.224Z,35
2018-08-24T07:16:29.478Z,35
2018-08-24T07:16:49.691Z,35
2018-08-24T07:17:09.885Z,35
2018-08-24T07:17:30.018Z,35
2018-08-24T07:17:50.196Z,35
2018-08-24T07:18:10.447Z,35
2018-08-24T07:18:30.689Z,35
2018-08-24T07:18:50.933Z,30
2018-08-24T07:19:11.100Z,30
2018-08-24T07:19:31.415Z,30
2018-08-24T07:19:51.675Z,30
2018-08-24T07:20:11.900Z,30
2018-08-24T07:20:32.102Z,30
2018-08-24T07:20:52.359Z,35
2018-08-24T07:21:12.562Z,35
2018-08-24T07:21:32.854Z,35
2018-08-24T07:21:53.082Z,35
2018-08-24T07:22:13.321Z,35
2018-08-24T07:22:33.585Z,35
2018-08-24T07:22:53.856Z,40
2018-08-24T07:23:14.102Z,40
2018-08-24T07:23:34.375Z,40
2018-08-24T07:23:54.648Z,40
2018-08-24T07:24:14.894Z,40
2018-08-24T07:24:35.095Z,40
2018-08-24T07:24:55.264Z,45
2018-08-24T07:25:15.698Z,45
2018-08-24T07:25:35.915Z,45
2018-08-24T07:25:56.181Z,45
2018-08-24T07:26:16.488Z,45
2018-08-24T07:26:36.775Z,45
2018-08-24T07:26:57.050Z,50
2018-08-24T07:27:17.299Z,50
2018-08-24T07:27:37.627Z,45
2018-08-24T07:27:57.830Z,45
2018-08-24T07:28:18.015Z,45
2018-08-24T07:28:38.272Z,45
2018-08-24T07:28:59.311Z,45
2018-08-24T07:29:19.768Z,50
2018-08-24T07:29:40.019Z,50
2018-08-24T07:30:01.121Z,50
2018-08-24T07:30:21.375Z,50
2018-08-24T07:30:41.541Z,50
2018-08-24T07:31:02.001Z,50
2018-08-24T07:31:22.237Z,55
2018-08-24T07:31:42.544Z,55
2018-08-24T07:32:02.740Z,55
2018-08-24T07:32:23.057Z,50
2018-08-24T07:32:43.291Z,55
2018-08-24T07:33:03.514Z,55
2018-08-24T07:33:23.786Z,55
2018-08-24T07:33:44.074Z,55
2018-08-24T07:34:04.311Z,55
2018-08-24T07:34:24.473Z,55
2018-08-24T07:34:44.660Z,55
2018-08-24T07:35:04.849Z,50
2018-08-24T07:35:25.151Z,50
2018-08-24T07:35:45.304Z,50
2018-08-24T07:36:05.532Z,50
2018-08-24T07:36:25.773Z,50
2018-08-24T07:36:46.029Z,50
2018-08-24T07:37:06.305Z,50
2018-08-24T07:37:26.700Z,50
2018-08-24T07:37:46.930Z,50
2018-08-24T07:38:07.791Z,45
2018-08-24T07:38:28.140Z,45
2018-08-24T07:38:48.398Z,45
2018-08-24T07:39:08.653Z,50
2018-08-24T07:39:28.871Z,45
2018-08-24T07:39:49.102Z,45
2018-08-24T07:40:09.368Z,45
2018-08-24T07:40:29.620Z,45
2018-08-24T07:40:49.856Z,45
2018-08-24T07:41:10.027Z,45
2018-08-24T07:41:30.340Z,45
2018-08-24T07:41:50.546Z,45
2018-08-24T07:42:10.729Z,45
2018-08-24T07:42:30.967Z,45
2018-08-24T07:42:51.164Z,45
2018-08-24T07:43:12.000Z,45
2018-08-24T07:43:32.247Z,45
2018-08-24T07:43:52.494Z,45
2018-08-24T07:44:12.664Z,45
2018-08-24T07:44:32.865Z,45
2018-08-24T07:44:53.133Z,45
2018-08-24T07:45:13.401Z,45
2018-08-24T07:45:33.630Z,45
2018-08-24T07:45:53.925Z,45
2018-08-24T07:46:14.213Z,45
2018-08-24T07:46:34.511Z,45
2018-08-24T07:46:54.715Z,45
2018-08-24T07:47:14.918Z,40
2018-08-24T07:47:35.240Z,40
2018-08-24T07:47:55.457Z,45
2018-08-24T07:48:15.684Z,45
2018-08-24T07:48:35.934Z,45
2018-08-24T07:48:56.235Z,45
2018-08-24T07:49:16.478Z,40
2018-08-24T07:49:36.780Z,40
2018-08-24T07:49:57.030Z,40
2018-08-24T07:50:17.298Z,40
2018-08-24T07:50:37.511Z,40
2018-08-24T07:50:57.985Z,40
2018-08-24T07:51:18.092Z,40
2018-08-24T07:51:38.397Z,40
2018-08-24T07:51:58.641Z,40
2018-08-24T07:52:18.843Z,40
2018-08-24T07:52:39.058Z,35
2018-08-24T07:52:59.320Z,35
2018-08-24T07:53:19.633Z,35
2018-08-24T07:53:39.877Z,35
2018-08-24T07:54:00.144Z,35
2018-08-24T07:54:20.526Z,35
2018-08-24T07:54:40.734Z,35
2018-08-24T07:55:00.956Z,35
2018-08-24T07:55:21.167Z,35
2018-08-24T07:55:41.374Z,35
2018-08-24T07:56:01.605Z,35
2018-08-24T08:05:46.787Z,35
2018-08-24T08:06:07.084Z,35
2018-08-24T08:06:27.332Z,35
2018-08-24T08:06:47.582Z,35
2018-08-24T08:07:07.976Z,35
2018-08-24T08:07:28.221Z,35
2018-08-24T08:07:48.512Z,35
2018-08-24T08:08:08.766Z,35
2018-08-24T08:08:29.158Z,35
2018-08-24T08:08:49.392Z,35
2018-08-24T08:09:09.671Z,35
2018-08-24T08:09:29.992Z,35
2018-08-24T08:09:50.272Z,35
2018-08-24T08:10:10.731Z,35
2018-08-24T08:10:31.017Z,35
2018-08-24T08:10:51.313Z,35
2018-08-24T08:11:11.594Z,35
2018-08-24T08:11:31.857Z,35
2018-08-24T08:11:52.070Z,35
2018-08-24T08:12:12.452Z,35
2018-08-24T08:12:32.738Z,35
2018-08-24T08:12:52.955Z,35
2018-08-24T08:13:13.216Z,35
2018-08-24T08:13:33.478Z,35
2018-08-24T08:13:53.795Z,35
2018-08-24T08:14:14.050Z,35
2018-08-24T08:14:34.350Z,35
2018-08-24T08:14:54.772Z,35
2018-08-24T08:15:15.016Z,35
2018-08-24T08:15:35.472Z,35
2018-08-24T08:15:55.761Z,40
2018-08-24T08:16:16.045Z,40
2018-08-24T08:16:36.382Z,40
2018-08-24T08:16:56.542Z,40
2018-08-24T08:17:17.022Z,40
2018-08-24T08:17:37.288Z,40
2018-08-24T08:17:57.802Z,40
2018-08-24T08:18:18.394Z,40
2018-08-24T08:18:38.569Z,40
2018-08-24T08:18:58.814Z,40
2018-08-24T08:19:19.098Z,40
2018-08-24T08:19:39.353Z,40
2018-08-24T08:19:59.749Z,40
2018-08-24T08:20:19.966Z,40
2018-08-24T08:20:41.029Z,40
2018-08-24T08:21:01.314Z,40
2018-08-24T08:21:21.552Z,40
2018-08-24T08:21:41.822Z,40
2018-08-24T08:22:03.195Z,40
2018-08-24T08:22:23.476Z,40
2018-08-24T08:22:43.774Z,40
2018-08-24T08:23:04.125Z,40
2018-08-24T08:23:43.993Z,40
2018-08-24T08:24:04.263Z,40
2018-08-24T08:24:24.567Z,45
2018-08-24T08:24:44.980Z,40
2018-08-24T08:25:05.283Z,45
2018-08-24T08:25:25.599Z,45
2018-08-24T08:25:46.035Z,45
2018-08-24T08:26:06.322Z,45
2018-08-24T08:26:26.689Z,45
2018-08-24T08:26:46.911Z,45
2018-08-24T08:27:07.178Z,45
2018-08-24T08:27:27.424Z,50
2018-08-24T08:27:47.829Z,50
2018-08-24T08:28:08.138Z,50
2018-08-24T08:28:28.421Z,55
2018-08-24T08:28:48.738Z,55
2018-08-24T08:29:08.976Z,50
2018-08-24T08:29:29.247Z,50
2018-08-24T08:29:49.464Z,55
2018-08-24T08:30:09.733Z,50
2018-08-24T08:30:30.103Z,50
2018-08-24T08:30:50.613Z,50
2018-08-24T08:31:10.857Z,45
2018-08-24T08:31:31.249Z,45
2018-08-24T08:31:51.513Z,45
2018-08-24T08:32:11.726Z,40
2018-08-24T08:32:31.967Z,40
2018-08-24T08:32:52.193Z,40
2018-08-24T08:33:12.439Z,40
2018-08-24T08:33:32.850Z,40
2018-08-24T08:33:53.083Z,40
2018-08-24T08:34:13.274Z,40
2018-08-24T08:34:33.646Z,40
2018-08-24T08:34:53.897Z,40
2018-08-24T08:35:15.087Z,35
2018-08-24T08:35:35.345Z,35
2018-08-24T08:35:56.145Z,35
2018-08-24T08:36:16.466Z,35
2018-08-24T08:36:36.733Z,35
2018-08-24T08:36:57.107Z,35
2018-08-24T08:37:17.356Z,35
2018-08-24T08:37:37.627Z,35
2018-08-24T08:37:57.874Z,35
2018-08-24T08:38:18.213Z,35
2018-08-24T08:38:38.393Z,40
2018-08-24T08:38:58.743Z,40
2018-08-24T08:39:19.548Z,40
2018-08-24T08:39:39.767Z,40
2018-08-24T08:39:59.989Z,45
2018-08-24T08:40:20.249Z,45
2018-08-24T08:40:40.441Z,40
2018-08-24T08:41:00.618Z,40
2018-08-24T08:41:20.858Z,40
2018-08-24T08:41:41.150Z,40
2018-08-24T08:42:01.358Z,40
2018-08-24T08:42:22.397Z,40
2018-08-24T08:42:42.634Z,45
2018-08-24T08:43:02.942Z,45
2018-08-24T08:43:23.232Z,45
2018-08-24T08:43:43.463Z,55
2018-08-24T08:44:03.775Z,60
2018-08-24T08:44:24.016Z,60
2018-08-24T08:44:44.219Z,55
2018-08-24T08:45:04.422Z,55
2018-08-24T08:45:24.823Z,50
2018-08-24T08:45:44.917Z,50
2018-08-24T08:46:05.088Z,55
2018-08-24T08:46:25.439Z,55
2018-08-24T08:46:45.775Z,55
2018-08-24T08:47:05.965Z,55
2018-08-24T08:47:26.221Z,55
2018-08-24T08:47:46.492Z,55
2018-08-24T08:48:06.674Z,50
2018-08-24T08:48:26.971Z,55
2018-08-24T08:48:47.177Z,55
2018-08-24T08:49:07.427Z,55
2018-08-24T08:49:27.610Z,55
2018-08-24T08:49:47.921Z,50
2018-08-24T08:50:08.121Z,55
2018-08-24T08:50:28.360Z,60
2018-08-24T08:50:48.543Z,60
2018-08-24T08:51:08.785Z,60
2018-08-24T08:51:29.031Z,60
2018-08-24T08:51:49.305Z,55
2018-08-24T08:52:09.430Z,55
2018-08-24T08:52:29.628Z,50
2018-08-24T08:52:49.885Z,60
2018-08-24T08:53:10.099Z,55
2018-08-24T08:53:30.557Z,55
2018-08-24T08:53:50.742Z,50
2018-08-24T08:54:10.910Z,50
2018-08-24T08:54:31.161Z,50
2018-08-24T08:54:51.360Z,50
2018-08-24T08:55:11.551Z,50
2018-08-24T08:55:31.775Z,50
2018-08-24T08:55:52.057Z,50
2018-08-24T08:56:12.328Z,45
2018-08-24T08:56:32.809Z,45
2018-08-24T08:56:53.070Z,40
2018-08-24T08:57:13.304Z,40
2018-08-24T08:57:33.520Z,40
2018-08-24T08:57:53.771Z,40
2018-08-24T08:58:14.058Z,40
2018-08-24T08:58:34.242Z,40
2018-08-24T08:58:54.459Z,40
2018-08-24T08:59:14.632Z,45
2018-08-24T08:59:34.840Z,45
2018-08-24T08:59:55.031Z,45
2018-08-24T09:00:15.244Z,45
2018-08-24T09:00:35.507Z,45
2018-08-24T09:00:55.796Z,45
2018-08-24T09:01:15.976Z,45
2018-08-24T09:01:36.205Z,45
2018-08-24T09:01:56.434Z,45
2018-08-24T09:02:16.702Z,45
2018-08-24T09:02:36.882Z,45
2018-08-24T09:02:57.188Z,45
2018-08-24T09:03:17.405Z,45
2018-08-24T09:03:37.647Z,45
2018-08-24T09:03:57.853Z,45
2018-08-24T09:04:17.987Z,50
2018-08-24T09:04:38.213Z,50
2018-08-24T09:04:58.444Z,50
2018-08-24T09:05:18.619Z,55
2018-08-24T09:05:38.925Z,55
2018-08-24T09:05:59.193Z,60
2018-08-24T09:06:19.582Z,60
2018-08-24T09:06:39.856Z,55
2018-08-24T09:07:00.122Z,55
2018-08-24T09:07:20.922Z,55
2018-08-24T09:07:41.159Z,55
2018-08-24T09:08:01.380Z,60
2018-08-24T09:08:21.588Z,60
2018-08-24T09:08:41.848Z,60
2018-08-24T09:09:02.100Z,60
2018-08-24T09:09:22.310Z,65
2018-08-24T09:09:42.588Z,60
2018-08-24T09:10:02.875Z,60
2018-08-24T09:10:23.057Z,60
2018-08-24T09:10:43.311Z,60
2018-08-24T09:11:03.564Z,55
2018-08-24T09:11:23.751Z,60
2018-08-24T09:11:43.945Z,55
2018-08-24T09:12:04.206Z,50
2018-08-24T09:12:24.446Z,50
2018-08-24T09:12:44.650Z,50
2018-08-24T09:13:05.041Z,50
2018-08-24T09:13:25.097Z,50
2018-08-24T09:13:45.323Z,50
2018-08-24T09:14:05.546Z,45
2018-08-24T09:14:25.744Z,45
2018-08-24T09:14:45.966Z,45
2018-08-24T09:15:06.120Z,50
2018-08-24T09:15:26.313Z,50
2018-08-24T09:15:46.689Z,50
2018-08-24T09:16:06.872Z,55
2018-08-24T09:16:27.116Z,50
2018-08-24T09:16:47.321Z,50
2018-08-24T09:17:07.560Z,50
2018-08-24T09:17:27.742Z,50
2018-08-24T09:17:47.967Z,50
2018-08-24T09:18:08.184Z,50
2018-08-24T09:18:28.446Z,50
2018-08-24T09:18:48.584Z,50
2018-08-24T09:19:08.790Z,50
2018-08-24T09:19:29.081Z,50
2018-08-24T09:19:49.282Z,55
2018-08-24T09:20:09.563Z,55
2018-08-24T09:20:29.781Z,55
2018-08-24T09:20:50.010Z,60
2018-08-24T09:21:10.313Z,60
2018-08-24T09:21:30.597Z,60
2018-08-24T09:21:50.808Z,60
2018-08-24T09:22:11.008Z,55
2018-08-24T09:22:31.262Z,55
2018-08-24T09:22:51.523Z,60
2018-08-24T09:23:11.831Z,55
2018-08-24T09:23:32.076Z,55
2018-08-24T09:23:52.461Z,55
2018-08-24T09:24:12.708Z,55
2018-08-24T09:24:32.927Z,55
2018-08-24T09:24:53.162Z,55
2018-08-24T09:25:13.508Z,60
2018-08-24T09:25:34.394Z,60
2018-08-24T09:25:54.888Z,55
2018-08-24T09:26:16.600Z,55
2018-08-24T09:26:36.848Z,55
2018-08-24T09:26:57.114Z,55
2018-08-24T09:27:17.372Z,55
2018-08-24T09:27:37.575Z,55
2018-08-24T09:27:57.780Z,55
2018-08-24T09:28:18.157Z,60
2018-08-24T09:28:38.484Z,55
2018-08-24T09:28:58.789Z,55
2018-08-24T09:29:18.996Z,55
2018-08-24T09:29:39.285Z,55
2018-08-24T09:29:59.531Z,55
2018-08-24T09:30:19.751Z,60
2018-08-24T09:30:40.007Z,60
2018-08-24T09:31:00.211Z,60
2018-08-24T09:31:20.417Z,60
2018-08-24T09:31:40.659Z,60
2018-08-24T09:32:00.883Z,65
2018-08-24T09:32:21.154Z,65
2018-08-24T09:32:41.601Z,65
2018-08-24T09:33:01.775Z,65
2018-08-24T09:33:21.939Z,65
2018-08-24T09:33:42.119Z,70
2018-08-24T09:34:02.334Z,65
2018-08-24T09:34:22.526Z,65
2018-08-24T09:34:42.724Z,60
2018-08-24T09:35:02.930Z,65
2018-08-24T09:35:23.145Z,65
2018-08-24T09:35:43.341Z,65
2018-08-24T09:36:03.578Z,65
2018-08-24T09:36:23.760Z,65
2018-08-24T09:36:43.956Z,60
2018-08-24T09:37:04.227Z,60
2018-08-24T09:37:24.639Z,60
2018-08-24T09:37:44.774Z,60
2018-08-24T09:38:05.183Z,60
2018-08-24T09:38:25.274Z,60
2018-08-24T09:38:45.472Z,60
2018-08-24T09:39:05.635Z,60
2018-08-24T09:39:25.810Z,60
2018-08-24T09:39:46.034Z,60
2018-08-24T09:40:06.273Z,60
2018-08-24T09:40:26.496Z,60
2018-08-24T09:40:46.691Z,60
2018-08-24T09:41:06.904Z,60
2018-08-24T09:41:27.174Z,65
2018-08-24T09:41:47.372Z,65
2018-08-24T09:42:07.596Z,55
2018-08-24T09:42:27.868Z,55
2018-08-24T09:42:48.081Z,55
2018-08-24T09:43:08.389Z,60
2018-08-24T09:43:28.522Z,60
2018-08-24T09:43:48.730Z,60
2018-08-24T09:44:08.932Z,60
2018-08-24T09:44:29.120Z,65
2018-08-24T09:44:49.380Z,60
2018-08-24T09:45:09.615Z,60
2018-08-24T09:45:29.940Z,60
2018-08-24T09:45:50.247Z,60
2018-08-24T09:46:10.451Z,60
2018-08-24T09:46:30.735Z,60
2018-08-24T09:46:50.896Z,60
2018-08-24T09:47:11.116Z,60
2018-08-24T09:47:31.319Z,60
2018-08-24T09:47:51.607Z,55
2018-08-24T09:48:11.904Z,55
2018-08-24T09:48:32.209Z,55
2018-08-24T09:48:52.533Z,55
2018-08-24T09:49:13.311Z,55
2018-08-24T09:49:33.446Z,55
2018-08-24T09:49:53.665Z,55
2018-08-24T09:50:13.916Z,60
2018-08-24T09:50:34.204Z,60
2018-08-24T09:50:54.426Z,55
2018-08-24T09:51:14.677Z,55
2018-08-24T09:51:34.916Z,60
2018-08-24T09:51:55.262Z,60
2018-08-24T09:52:15.531Z,50
2018-08-24T09:52:35.771Z,50
2018-08-24T09:52:56.006Z,50
2018-08-24T09:53:16.232Z,50
2018-08-24T09:53:36.486Z,50
2018-08-24T09:53:57.101Z,50
2018-08-24T09:54:17.481Z,50
2018-08-24T09:54:37.682Z,50
2018-08-24T09:54:57.939Z,50
2018-08-24T09:55:18.131Z,50
2018-08-24T09:55:38.251Z,55
2018-08-24T09:55:58.523Z,50
2018-08-24T09:56:18.817Z,55
2018-08-24T09:56:39.023Z,50
2018-08-24T09:56:59.349Z,50
2018-08-24T09:57:19.575Z,50
2018-08-24T09:57:39.857Z,50
2018-08-24T09:58:00.031Z,50
2018-08-24T09:58:20.229Z,50
2018-08-24T09:58:40.455Z,50
2018-08-24T09:59:00.708Z,50
2018-08-24T09:59:20.935Z,50
2018-08-24T09:59:41.097Z,55
2018-08-24T10:00:01.287Z,55
2018-08-24T10:00:21.528Z,55
2018-08-24T10:00:41.794Z,55
2018-08-24T10:01:02.062Z,50
2018-08-24T10:01:22.291Z,50
2018-08-24T10:01:42.591Z,60
2018-08-24T10:02:02.760Z,60
2018-08-24T10:02:22.997Z,60
2018-08-24T10:02:43.350Z,55
2018-08-24T10:03:03.545Z,55
2018-08-24T10:03:23.785Z,55
2018-08-24T10:03:43.981Z,60
2018-08-24T10:04:04.264Z,65
2018-08-24T10:04:24.512Z,60
2018-08-24T10:04:44.757Z,60
2018-08-24T10:05:04.968Z,60
2018-08-24T10:05:25.295Z,60
2018-08-24T10:05:45.538Z,60
2018-08-24T10:06:05.751Z,60
2018-08-24T10:06:26.155Z,60
2018-08-24T10:06:46.510Z,60
2018-08-24T10:07:06.662Z,60
2018-08-24T10:07:26.837Z,60
2018-08-24T10:07:47.075Z,60
2018-08-24T10:08:07.306Z,60
2018-08-24T10:08:27.515Z,60
2018-08-24T10:08:47.772Z,55
2018-08-24T10:09:08.545Z,55
2018-08-24T10:09:28.890Z,55
2018-08-24T10:09:49.114Z,55
2018-08-24T10:10:09.327Z,55
2018-08-24T10:10:32.145Z,55
2018-08-24T10:10:52.412Z,55
2018-08-24T10:11:12.597Z,55
2018-08-24T10:11:32.812Z,55
2018-08-24T10:11:53.084Z,60
2018-08-24T10:12:13.290Z,60
2018-08-24T10:12:34.157Z,60
2018-08-24T10:12:54.953Z,65
2018-08-24T10:13:15.308Z,60
2018-08-24T10:13:35.451Z,65
2018-08-24T10:13:55.631Z,65
2018-08-24T10:14:15.843Z,65
2018-08-24T10:14:36.084Z,65
2018-08-24T10:14:56.342Z,60
2018-08-24T10:15:16.554Z,60
2018-08-24T10:15:40.567Z,55
2018-08-24T10:16:00.780Z,55
2018-08-24T10:16:21.795Z,60
2018-08-24T10:16:42.056Z,60
2018-08-24T10:17:02.262Z,60
2018-08-24T10:17:22.535Z,55
2018-08-24T10:17:42.724Z,55
2018-08-24T10:18:02.902Z,55
2018-08-24T10:18:23.174Z,55
2018-08-24T10:18:43.395Z,55
2018-08-24T10:19:05.061Z,60
2018-08-24T10:19:25.253Z,60
2018-08-24T10:19:45.489Z,60
2018-08-24T10:20:05.701Z,60
2018-08-24T10:20:25.963Z,60
2018-08-24T10:20:46.186Z,55
2018-08-24T10:21:07.128Z,55
2018-08-24T10:21:27.454Z,55
2018-08-24T10:21:47.746Z,55
2018-08-24T10:22:07.958Z,55
2018-08-24T10:22:28.878Z,55
2018-08-24T10:22:49.058Z,55
2018-08-24T10:23:09.478Z,60
2018-08-24T10:23:29.599Z,65
2018-08-24T10:23:49.822Z,65
2018-08-24T10:24:10.027Z,65
2018-08-24T10:24:30.574Z,65
2018-08-24T10:24:50.778Z,65
2018-08-24T10:25:11.025Z,65
2018-08-24T10:25:31.224Z,65
2018-08-24T10:25:51.472Z,65
2018-08-24T10:26:12.521Z,70
2018-08-24T10:26:32.791Z,70
2018-08-24T10:26:53.116Z,70
2018-08-24T10:27:13.383Z,70
2018-08-24T10:27:33.617Z,70
2018-08-24T10:27:53.856Z,70
2018-08-24T10:28:14.054Z,70
2018-08-24T10:28:34.281Z,70
2018-08-24T10:28:54.462Z,75
2018-08-24T10:29:14.742Z,75
2018-08-24T10:29:35.755Z,75
2018-08-24T10:29:55.895Z,75
2018-08-24T10:30:16.170Z,75
2018-08-24T10:30:36.439Z,75
2018-08-24T10:30:56.681Z,75
2018-08-24T10:31:16.907Z,70
2018-08-24T10:31:38.041Z,70
2018-08-24T10:31:58.347Z,70
2018-08-24T10:32:18.521Z,70
2018-08-24T10:32:38.689Z,70
2018-08-24T10:32:58.895Z,70
2018-08-24T10:33:19.105Z,70
2018-08-24T10:33:39.337Z,70
2018-08-24T10:33:59.545Z,70
2018-08-24T10:34:20.329Z,70
2018-08-24T10:34:40.541Z,70
2018-08-24T10:35:00.795Z,70
2018-08-24T10:35:21.130Z,65
2018-08-24T10:35:41.404Z,65
2018-08-24T10:36:01.674Z,65
2018-08-24T10:36:23.432Z,65
2018-08-24T10:36:43.636Z,65
2018-08-24T10:37:03.889Z,65
2018-08-24T10:37:24.081Z,65
2018-08-24T10:37:44.329Z,65
2018-08-24T10:38:06.307Z,65
2018-08-24T10:38:27.026Z,65
2018-08-24T10:38:47.290Z,65
2018-08-24T10:39:07.597Z,65
2018-08-24T10:39:29.212Z,60
2018-08-24T10:39:49.439Z,60
2018-08-24T10:40:09.617Z,60
2018-08-24T10:40:29.806Z,55
2018-08-24T10:40:50.109Z,50
2018-08-24T10:41:10.250Z,50
2018-08-24T10:41:30.568Z,50
2018-08-24T10:41:50.906Z,50
2018-08-24T10:42:11.058Z,50
2018-08-24T10:42:31.258Z,45
2018-08-24T10:42:51.485Z,45
2018-08-24T10:43:12.344Z,45
2018-08-24T10:43:32.636Z,45
2018-08-24T10:43:52.838Z,45
2018-08-24T10:44:13.065Z,45
2018-08-24T10:44:33.288Z,45
2018-08-24T10:44:53.502Z,45
2018-08-24T10:45:13.749Z,45
2018-08-24T10:45:34.926Z,40
2018-08-24T10:45:55.127Z,40
2018-08-24T10:46:15.389Z,40
2018-08-24T10:46:35.607Z,40
2018-08-24T10:46:55.801Z,40
2018-08-24T10:47:16.138Z,40
2018-08-24T10:47:36.342Z,45
2018-08-24T10:47:56.672Z,45
2018-08-24T10:48:16.934Z,40
2018-08-24T10:48:37.156Z,40
2018-08-24T10:48:57.406Z,40
2018-08-24T10:49:17.672Z,45
2018-08-24T10:49:38.086Z,45
2018-08-24T10:49:58.300Z,50
2018-08-24T10:50:19.698Z,55
2018-08-24T10:50:39.862Z,55
2018-08-24T10:51:00.144Z,55
2018-08-24T10:51:20.429Z,55
2018-08-24T10:51:40.694Z,55
2018-08-24T10:52:01.049Z,55
2018-08-24T10:52:21.240Z,55
2018-08-24T10:52:41.546Z,60
2018-08-24T10:53:01.737Z,55
2018-08-24T10:53:21.978Z,55
2018-08-24T10:53:42.176Z,55
2018-08-24T10:54:02.383Z,55
2018-08-24T10:54:23.827Z,50
2018-08-24T10:54:44.807Z,50
2018-08-24T10:55:05.047Z,50
2018-08-24T10:55:26.178Z,50
2018-08-24T10:55:46.810Z,50
2018-08-24T10:56:07.343Z,50
2018-08-24T10:56:27.469Z,55
2018-08-24T10:56:47.805Z,55
2018-08-24T10:57:08.208Z,55
2018-08-24T10:57:28.444Z,55
2018-08-24T10:57:48.653Z,60
2018-08-24T10:58:08.890Z,60
2018-08-24T10:58:29.207Z,60
2018-08-24T10:58:49.444Z,60
2018-08-24T10:59:09.725Z,60
2018-08-24T10:59:31.146Z,55
2018-08-24T10:59:51.407Z,55
2018-08-24T11:00:12.342Z,60
2018-08-24T11:00:33.578Z,60
2018-08-24T11:00:53.843Z,60
2018-08-24T11:01:14.169Z,60
2018-08-24T11:01:34.432Z,55
2018-08-24T11:01:54.713Z,55
2018-08-24T11:02:15.188Z,55
2018-08-24T11:02:35.406Z,55
2018-08-24T11:02:55.663Z,55
2018-08-24T11:03:16.538Z,60
2018-08-24T11:03:36.765Z,60
2018-08-24T11:03:56.975Z,60
2018-08-24T11:04:17.204Z,60
2018-08-24T11:04:37.369Z,60
2018-08-24T11:04:57.581Z,55
2018-08-24T11:05:17.957Z,55
2018-08-24T11:05:38.296Z,55
2018-08-24T11:05:58.514Z,55
2018-08-24T11:06:18.756Z,55
2018-08-24T11:06:39.920Z,55
2018-08-24T11:07:00.749Z,55
2018-08-24T11:07:21.401Z,55
2018-08-24T11:07:41.692Z,55
2018-08-24T11:08:21.466Z,55
2018-08-24T11:08:41.725Z,55
2018-08-24T11:09:02.015Z,55
2018-08-24T11:09:22.255Z,55
2018-08-24T11:09:43.411Z,55
2018-08-24T11:10:03.842Z,55
2018-08-24T11:10:24.003Z,55
2018-08-24T11:10:45.125Z,60
2018-08-24T11:11:05.300Z,60
2018-08-24T11:11:25.619Z,60
2018-08-24T11:11:45.772Z,60
2018-08-24T11:12:05.983Z,60
2018-08-24T11:12:26.919Z,60
2018-08-24T11:12:47.336Z,60
2018-08-24T11:13:08.020Z,60
2018-08-24T11:13:28.430Z,60
2018-08-24T11:13:48.971Z,60
2018-08-24T11:14:09.397Z,55
2018-08-24T11:14:30.038Z,55
2018-08-24T11:14:50.413Z,55
2018-08-24T11:15:10.670Z,55
2018-08-24T11:15:30.967Z,55
2018-08-24T11:15:51.249Z,55
2018-08-24T11:16:12.251Z,55
2018-08-24T11:16:33.138Z,50
2018-08-24T11:16:53.459Z,50
2018-08-24T11:17:13.853Z,55
2018-08-24T11:17:34.173Z,50
2018-08-24T11:17:54.438Z,50
2018-08-24T11:18:14.940Z,50
2018-08-24T11:18:35.086Z,50
2018-08-24T11:18:56.373Z,50
2018-08-24T11:19:16.696Z,50
2018-08-24T11:19:37.112Z,50
2018-08-24T11:19:58.885Z,50
2018-08-24T11:20:19.372Z,50
2018-08-24T11:20:39.688Z,50
2018-08-24T11:21:00.042Z,50
2018-08-24T11:21:21.369Z,50
2018-08-24T11:21:41.560Z,50
2018-08-24T11:22:01.813Z,50
2018-08-24T11:22:22.567Z,50
2018-08-24T11:22:42.865Z,50
2018-08-24T11:23:03.327Z,50
2018-08-24T11:23:23.528Z,50
2018-08-24T11:23:43.844Z,50
2018-08-24T11:24:04.051Z,50
2018-08-24T11:24:24.311Z,50
2018-08-24T11:24:44.512Z,50
2018-08-24T11:25:04.738Z,50
2018-08-24T11:25:25.114Z,50
2018-08-24T11:25:45.615Z,50
2018-08-24T11:26:06.025Z,50
2018-08-24T11:26:26.193Z,50
2018-08-24T11:26:46.744Z,50
2018-08-24T11:27:06.943Z,55
2018-08-24T11:27:27.215Z,55
2018-08-24T11:27:47.494Z,55
2018-08-24T11:28:07.658Z,55
2018-08-24T11:28:27.896Z,55
2018-08-24T11:28:48.264Z,55
2018-08-24T11:29:08.474Z,55
2018-08-24T11:29:28.787Z,55
2018-08-24T11:29:48.902Z,60
2018-08-24T11:30:09.039Z,60
2018-08-24T11:30:30.312Z,60
2018-08-24T11:30:50.555Z,60
2018-08-24T11:31:10.805Z,60
2018-08-24T11:31:31.188Z,65
2018-08-24T11:31:51.495Z,60
2018-08-24T11:32:11.775Z,60
2018-08-24T11:32:32.044Z,55
2018-08-24T11:32:52.318Z,55
2018-08-24T11:33:12.624Z,55
2018-08-24T11:33:33.003Z,50
2018-08-24T11:33:53.433Z,50
2018-08-24T11:34:13.981Z,55
2018-08-24T11:34:34.363Z,55
2018-08-24T11:34:54.643Z,55
2018-08-24T11:35:15.944Z,55
2018-08-24T11:35:36.932Z,65
2018-08-24T11:35:57.345Z,60
2018-08-24T11:36:17.827Z,65
2018-08-24T11:36:37.988Z,65
2018-08-24T11:36:58.331Z,55
2018-08-24T11:37:18.875Z,50
2018-08-24T11:37:39.190Z,50
2018-08-24T11:37:59.435Z,50
2018-08-24T11:38:19.797Z,50
2018-08-24T11:38:40.153Z,50
2018-08-24T11:39:00.770Z,55
2018-08-24T11:39:21.005Z,50
2018-08-24T11:39:41.256Z,45
2018-08-24T11:40:01.683Z,45
2018-08-24T11:40:21.938Z,45
2018-08-24T11:40:42.382Z,40
2018-08-24T11:41:02.883Z,40
2018-08-24T11:41:23.881Z,40
2018-08-24T11:41:44.445Z,40
2018-08-24T11:42:05.525Z,40
2018-08-24T11:42:26.297Z,40
2018-08-24T11:42:46.493Z,40
2018-08-24T11:43:06.669Z,35
2018-08-24T11:43:26.902Z,35
2018-08-24T11:43:47.183Z,35
2018-08-24T11:44:07.582Z,30
2018-08-24T11:44:27.918Z,30